Time;durP1;ratioP1;P1;durP2;ratioP2;P2;SDS_P1;SDS_P2;PMS_P1;PMS_P2;Temp;Humidity;BMP_temperature;BMP_pressure;BME280_temperature;BME280_humidity;BME280_pressure;Samples;Min_cycle;Max_cycle;Signal;HPM_P1;HPM_P2
2021/09/26 00:00:13;;;;;;;12.50;11.17;;;;;;;15.25;85.92;101799.03;4977839;28;20199;-78
2021/09/26 00:02:39;;;;;;;13.23;11.57;;;;;;;15.20;86.28;101800.63;4975585;28;20209;-78
2021/09/26 00:05:05;;;;;;;12.67;11.33;;;;;;;15.18;86.64;101802.34;4975898;28;20196;-80
2021/09/26 00:07:31;;;;;;;14.50;11.13;;;;;;;15.20;86.13;101795.47;4976875;28;20239;-79
2021/09/26 00:09:56;;;;;;;12.73;10.40;;;;;;;15.24;85.68;101799.84;4978591;28;20248;-79
2021/09/26 00:12:22;;;;;;;12.40;11.10;;;;;;;15.25;86.35;101790.41;4977986;28;20685;-79
2021/09/26 00:14:47;;;;;;;11.63;10.53;;;;;;;15.27;85.64;101794.75;4976661;28;20645;-78
2021/09/26 00:17:12;;;;;;;11.23;10.03;;;;;;;15.28;86.24;101796.47;4976848;28;20221;-79
2021/09/26 00:19:38;;;;;;;12.93;10.77;;;;;;;15.28;85.96;101800.78;4976963;28;20188;-78
2021/09/26 00:22:04;;;;;;;12.80;10.77;;;;;;;15.30;86.25;101805.13;4978417;28;20212;-78
2021/09/26 00:24:29;;;;;;;11.00;9.70;;;;;;;15.29;86.61;101797.34;4975415;28;20192;-79
2021/09/26 00:26:55;;;;;;;12.17;10.63;;;;;;;15.29;86.09;101798.19;4976418;28;20204;-79
2021/09/26 00:29:20;;;;;;;12.60;10.17;;;;;;;15.32;86.00;101785.34;4976501;28;20203;-78
2021/09/26 00:31:45;;;;;;;10.77;9.50;;;;;;;15.34;86.29;101786.25;4958963;28;20630;-78
2021/09/26 00:34:11;;;;;;;11.37;9.70;;;;;;;15.35;85.92;101792.31;4973982;28;20196;-79
2021/09/26 00:36:36;;;;;;;12.53;9.53;;;;;;;15.35;85.58;101782.84;4975367;28;20307;-78
2021/09/26 00:39:02;;;;;;;11.73;10.00;;;;;;;15.32;85.81;101785.34;4975313;28;20219;-81
2021/09/26 00:41:27;;;;;;;10.67;9.57;;;;;;;15.34;85.87;101781.09;4974587;28;20208;-78
2021/09/26 00:43:53;;;;;;;10.90;9.80;;;;;;;15.35;86.45;101788.03;4976072;28;20216;-79
2021/09/26 00:46:18;;;;;;;10.30;8.70;;;;;;;15.33;86.16;101787.06;4974241;28;20216;-78
2021/09/26 00:48:43;;;;;;;9.83;8.67;;;;;;;15.31;86.17;101796.53;4976401;28;20192;-79
2021/09/26 00:51:12;;;;;;;10.40;9.30;;;;;;;15.34;86.04;101795.75;4975617;28;20195;-78
2021/09/26 00:53:40;;;;;;;9.90;8.90;;;;;;;15.32;86.35;101800.84;4975249;28;20196;-80
2021/09/26 00:56:07;;;;;;;12.57;8.97;;;;;;;15.31;85.82;101790.47;4989707;28;20223;-79
2021/09/26 00:58:33;;;;;;;11.37;9.07;;;;;;;15.34;86.18;101796.59;4974358;28;20275;-80
2021/09/26 01:00:58;;;;;;;15.60;10.07;;;;;;;15.32;86.51;101795.66;4957383;28;20208;-79
2021/09/26 01:03:23;;;;;;;10.60;8.97;;;;;;;15.31;86.58;101798.22;4974083;28;20662;-79
2021/09/26 01:06:06;;;;;;;10.67;9.27;;;;;;;15.34;86.25;101795.75;4957880;28;20187;-79
2021/09/26 01:09:09;;;;;;;13.33;9.30;;;;;;;15.35;86.12;101797.47;4976148;28;20185;-79
2021/09/26 01:11:40;;;;;;;10.37;8.60;;;;;;;15.36;86.24;101788.88;4974117;28;20275;-81
2021/09/26 01:14:14;;;;;;;10.67;8.60;;;;;;;15.38;85.86;101785.47;4976101;28;20192;-81
2021/09/26 01:16:59;;;;;;;11.43;9.53;;;;;;;15.39;86.16;101788.94;4975206;28;20222;-80
2021/09/26 01:19:39;;;;;;;11.10;9.00;;;;;;;15.39;86.17;101791.50;4975247;28;20196;-81
2021/09/26 01:22:11;;;;;;;9.37;8.57;;;;;;;15.37;86.30;101786.31;4974333;28;20222;-81
2021/09/26 01:24:49;;;;;;;9.10;8.20;;;;;;;15.35;86.69;101788.03;4961167;28;20196;-80
2021/09/26 01:27:25;;;;;;;12.30;8.63;;;;;;;15.39;86.26;101791.50;4970150;28;20601;-78
2021/09/26 01:30:19;;;;;;;10.73;8.40;;;;;;;15.40;86.02;101790.66;4971722;28;20231;-78
2021/09/26 01:32:53;;;;;;;10.00;8.40;;;;;;;15.40;86.03;101782.91;4972268;28;20223;-79
2021/09/26 01:35:21;;;;;;;11.67;8.07;;;;;;;15.43;85.77;101785.56;4973663;28;20312;-79
2021/09/26 01:38:06;;;;;;;10.23;8.17;;;;;;;15.43;86.22;101782.97;4973210;28;20188;-79
2021/09/26 01:41:23;;;;;;;10.20;8.37;;;;;;;15.44;86.12;101787.28;4972791;28;20279;-79
2021/09/26 01:43:50;;;;;;;9.53;7.73;;;;;;;15.44;85.75;101788.16;4964851;28;20287;-81
2021/09/26 01:46:24;;;;;;;10.87;8.53;;;;;;;15.43;86.42;101786.41;4972972;28;20792;-81
2021/09/26 01:49:00;;;;;;;12.77;8.47;;;;;;;15.45;86.24;101783.84;4972958;28;20195;-80
2021/09/26 01:51:27;;;;;;;9.13;8.20;;;;;;;15.46;85.97;101788.16;4972880;28;20581;-81
2021/09/26 01:53:54;;;;;;;10.87;8.67;;;;;;;15.46;86.19;101794.19;4973482;28;20185;-81
2021/09/26 01:56:19;;;;;;;11.13;9.07;;;;;;;15.47;86.04;101793.34;4972931;28;20283;-81
2021/09/26 01:58:46;;;;;;;9.50;8.37;;;;;;;15.47;86.60;101787.34;4958722;28;20685;-79
2021/09/26 02:01:15;;;;;;;9.53;8.40;;;;;;;15.47;86.25;101790.75;4973276;28;20216;-81
2021/09/26 02:03:41;;;;;;;8.67;7.47;;;;;;;15.49;86.11;101783.06;4974587;28;20181;-80
2021/09/26 02:06:06;;;;;;;9.17;7.63;;;;;;;15.50;86.44;101787.34;4975231;28;20204;-80
2021/09/26 02:08:33;;;;;;;10.90;8.53;;;;;;;15.48;86.50;101782.16;4974901;28;20197;-80
2021/09/26 02:10:59;;;;;;;10.27;9.00;;;;;;;15.48;86.97;101784.75;4974672;28;20184;-80
2021/09/26 02:13:26;;;;;;;12.03;8.60;;;;;;;15.48;86.63;101789.06;5007616;28;20189;-80
2021/09/26 02:15:54;;;;;;;9.57;8.67;;;;;;;15.47;86.27;101793.34;4978452;28;20216;-80
2021/09/26 02:18:20;;;;;;;9.40;8.40;;;;;;;15.49;86.07;101790.78;4978044;28;20181;-80
2021/09/26 02:20:46;;;;;;;9.37;8.37;;;;;;;15.49;86.62;101783.94;4978542;28;20199;-80
2021/09/26 02:23:13;;;;;;;11.77;8.53;;;;;;;15.49;86.66;101778.78;4976752;28;20216;-79
2021/09/26 02:25:42;;;;;;;12.47;8.90;;;;;;;15.48;86.66;101779.59;4977100;28;20196;-78
2021/09/26 02:28:07;;;;;;;11.03;9.37;;;;;;;15.45;86.55;101776.97;4961081;28;20292;-81
2021/09/26 02:30:33;;;;;;;12.40;8.70;;;;;;;15.48;86.56;101768.41;4978034;28;20216;-79
2021/09/26 02:32:58;;;;;;;10.63;9.53;;;;;;;15.48;86.69;101773.56;4977101;28;20299;-80
2021/09/26 02:35:24;;;;;;;12.07;9.33;;;;;;;15.46;87.08;101780.41;4978076;28;20246;-80
2021/09/26 02:37:49;;;;;;;10.70;8.93;;;;;;;15.46;86.62;101772.66;4978679;28;20220;-80
2021/09/26 02:40:16;;;;;;;10.23;9.23;;;;;;;15.47;86.36;101770.13;4979160;28;20185;-81
2021/09/26 02:42:49;;;;;;;13.07;9.97;;;;;;;15.46;86.60;101778.72;4979897;28;20215;-79
2021/09/26 02:45:33;;;;;;;11.23;9.73;;;;;;;15.47;86.42;101775.28;4978491;28;20239;-80
2021/09/26 02:48:05;;;;;;;11.03;9.83;;;;;;;15.47;86.36;101770.13;4978865;28;20188;-81
2021/09/26 02:50:31;;;;;;;13.73;11.67;;;;;;;15.48;86.59;101771.00;4960348;28;20788;-80
2021/09/26 02:52:57;;;;;;;15.23;11.37;;;;;;;15.46;86.99;101770.97;4958588;29;20324;-81
2021/09/26 02:55:24;;;;;;;11.67;10.17;;;;;;;15.46;86.62;101770.97;4960997;28;20911;-81
2021/09/26 02:57:49;;;;;;;12.90;10.63;;;;;;;15.46;86.92;101767.50;4992673;28;20275;-79
2021/09/26 03:00:15;;;;;;;13.77;10.90;;;;;;;15.47;86.82;101771.84;5009249;28;20831;-79
2021/09/26 03:02:40;;;;;;;12.23;11.00;;;;;;;15.47;87.04;101770.13;4992898;28;20213;-80
2021/09/26 03:05:07;;;;;;;12.43;11.17;;;;;;;15.48;87.04;101773.56;4976109;28;20335;-81
2021/09/26 03:07:33;;;;;;;12.77;11.23;;;;;;;15.47;87.21;101762.38;4960322;28;20870;-78
2021/09/26 03:09:58;;;;;;;11.87;10.77;;;;;;;15.45;87.15;101751.16;4976540;28;20188;-81
2021/09/26 03:12:24;;;;;;;13.93;11.57;;;;;;;15.49;87.24;101757.22;4976116;28;20212;-80
2021/09/26 03:14:51;;;;;;;13.93;12.50;;;;;;;15.48;87.20;101758.09;4977712;28;20204;-79
2021/09/26 03:17:17;;;;;;;14.33;12.83;;;;;;;15.50;86.87;101756.38;4978034;28;20216;-81
2021/09/26 03:19:42;;;;;;;13.37;11.83;;;;;;;15.50;87.26;101751.22;4980186;28;20196;-79
2021/09/26 03:22:08;;;;;;;14.13;12.13;;;;;;;15.49;87.21;101749.50;4972555;28;20204;-78
2021/09/26 03:24:35;;;;;;;12.90;11.73;;;;;;;15.49;87.56;101746.91;4973742;28;20196;-79
2021/09/26 03:27:03;;;;;;;12.97;11.63;;;;;;;15.49;87.63;101747.78;4972548;28;20181;-79
2021/09/26 03:29:29;;;;;;;12.20;10.73;;;;;;;15.50;87.42;101754.69;4974907;28;20727;-80
2021/09/26 03:31:54;;;;;;;14.53;12.00;;;;;;;15.52;87.50;101752.97;4976646;28;20209;-79
2021/09/26 03:34:19;;;;;;;13.70;12.30;;;;;;;15.51;87.57;101755.56;4975675;28;20240;-80
2021/09/26 03:36:45;;;;;;;16.73;13.20;;;;;;;15.52;87.63;101752.13;4977760;28;20244;-82
2021/09/26 03:39:10;;;;;;;15.10;13.50;;;;;;;15.55;87.68;101760.78;4977118;28;20259;-78
2021/09/26 03:41:36;;;;;;;15.53;12.63;;;;;;;15.56;87.20;101759.91;4992543;28;20204;-82
2021/09/26 03:44:01;;;;;;;16.73;13.57;;;;;;;15.55;87.91;101762.47;4977965;28;20263;-81
2021/09/26 03:46:26;;;;;;;13.23;11.83;;;;;;;15.57;87.60;101755.63;5009887;28;20212;-80
2021/09/26 03:48:52;;;;;;;13.57;12.10;;;;;;;15.55;87.85;101753.03;4979900;28;20200;-79
2021/09/26 03:51:17;;;;;;;13.20;11.87;;;;;;;15.56;87.55;101751.31;4978737;28;20219;-78
2021/09/26 03:53:43;;;;;;;13.67;11.30;;;;;;;15.57;88.00;101751.31;4979486;28;20299;-82
2021/09/26 03:56:08;;;;;;;14.30;12.27;;;;;;;15.58;87.70;101749.63;4977741;28;20259;-81
2021/09/26 03:58:34;;;;;;;13.37;11.87;;;;;;;15.57;88.19;101753.91;4978253;28;20192;-79
2021/09/26 04:00:59;;;;;;;13.63;11.60;;;;;;;15.56;87.91;101749.59;4977734;28;20275;-79
2021/09/26 04:03:24;;;;;;;14.47;11.80;;;;;;;15.59;87.66;101748.75;4978424;28;20196;-79
2021/09/26 04:05:50;;;;;;;13.27;11.90;;;;;;;15.58;87.51;101747.03;4976503;28;20275;-80
2021/09/26 04:08:16;;;;;;;12.40;11.10;;;;;;;15.59;87.69;101741.91;4993739;28;20200;-81
2021/09/26 04:10:42;;;;;;;13.50;12.00;;;;;;;15.61;87.58;101739.34;4977355;28;20185;-80
2021/09/26 04:13:07;;;;;;;13.67;12.27;;;;;;;15.61;87.55;101729.00;4976698;28;20216;-79
2021/09/26 04:15:33;;;;;;;15.30;13.23;;;;;;;15.63;87.82;101732.47;4959861;28;20761;-79
2021/09/26 04:17:58;;;;;;;16.10;14.40;;;;;;;15.61;88.05;101726.44;4976708;28;20197;-81
2021/09/26 04:20:23;;;;;;;18.23;14.93;;;;;;;15.63;88.00;101723.03;4976979;28;20176;-79
2021/09/26 04:22:49;;;;;;;18.20;15.53;;;;;;;15.64;88.05;101734.19;4973827;28;20203;-78
2021/09/26 04:25:14;;;;;;;18.90;15.37;;;;;;;15.66;87.86;101737.69;4976921;28;20188;-81
2021/09/26 04:27:40;;;;;;;17.90;15.97;;;;;;;15.67;87.86;101731.66;4977895;28;20212;-78
2021/09/26 04:30:06;;;;;;;20.10;15.60;;;;;;;15.67;87.63;101734.25;4976899;28;20248;-80
2021/09/26 04:32:32;;;;;;;18.17;16.27;;;;;;;15.69;87.99;101730.84;4974644;28;20587;-79
2021/09/26 04:34:57;;;;;;;17.90;15.97;;;;;;;15.70;87.92;101727.41;5007283;28;20199;-79
2021/09/26 04:37:22;;;;;;;18.37;14.67;;;;;;;15.71;87.83;101729.13;5006746;28;20220;-80
2021/09/26 04:39:48;;;;;;;19.97;16.03;;;;;;;15.73;87.87;101736.91;4997093;28;20231;-80
2021/09/26 04:42:13;;;;;;;18.93;15.97;;;;;;;15.73;88.06;101729.16;4995266;28;20236;-80
2021/09/26 04:44:38;;;;;;;19.30;17.10;;;;;;;15.73;88.27;101722.28;5007262;28;20192;-79
2021/09/26 04:47:04;;;;;;;21.53;16.93;;;;;;;15.74;88.74;101718.00;5006986;28;20185;-81
2021/09/26 04:49:29;;;;;;;19.93;17.53;;;;;;;15.74;88.40;101718.00;4974212;28;20207;-80
2021/09/26 04:52:00;;;;;;;22.17;17.83;;;;;;;15.75;88.53;101723.16;4988773;28;20240;-79
2021/09/26 04:54:26;;;;;;;20.73;17.43;;;;;;;15.75;88.20;101723.16;4975687;28;20196;-78
2021/09/26 04:56:51;;;;;;;20.50;17.47;;;;;;;15.75;88.58;101720.56;4974107;28;20585;-80
2021/09/26 04:59:17;;;;;;;21.13;17.23;;;;;;;15.76;89.10;101719.75;4974810;28;20201;-80
2021/09/26 05:01:42;;;;;;;21.67;18.10;;;;;;;15.78;88.77;101722.31;4975627;28;20249;-79
2021/09/26 05:04:08;;;;;;;18.90;17.07;;;;;;;15.79;88.76;101724.09;4957275;28;20311;-80
2021/09/26 05:06:33;;;;;;;20.60;18.47;;;;;;;15.80;88.66;101725.81;4989576;28;20200;-80
2021/09/26 05:08:58;;;;;;;20.00;17.87;;;;;;;15.80;88.38;101720.66;4981488;28;20193;-80
2021/09/26 05:11:24;;;;;;;19.13;17.23;;;;;;;15.80;88.28;101726.66;4955307;28;20583;-78
2021/09/26 05:13:49;;;;;;;18.67;16.77;;;;;;;15.81;88.18;101731.00;4961570;28;20186;-79
2021/09/26 05:16:14;;;;;;;19.63;17.20;;;;;;;15.83;88.49;101729.28;4951304;29;20221;-80
2021/09/26 05:18:40;;;;;;;19.63;17.27;;;;;;;15.83;88.69;101721.53;4953567;28;20200;-78
2021/09/26 05:21:05;;;;;;;19.60;17.50;;;;;;;15.85;88.30;101727.63;4966435;28;20189;-77
2021/09/26 05:23:31;;;;;;;21.10;18.00;;;;;;;15.86;88.37;101726.75;4998449;28;20201;-79
2021/09/26 05:25:56;;;;;;;20.03;17.93;;;;;;;15.88;88.30;101721.63;4970033;28;20188;-78
2021/09/26 05:28:22;;;;;;;20.40;17.20;;;;;;;15.90;88.23;101730.25;4986565;28;20282;-78
2021/09/26 05:30:47;;;;;;;19.00;17.10;;;;;;;15.92;88.29;101728.53;4990775;28;20189;-78
2021/09/26 05:33:13;;;;;;;20.80;18.13;;;;;;;15.92;88.42;101734.56;4944543;28;20217;-79
2021/09/26 05:35:39;;;;;;;19.13;16.83;;;;;;;15.93;88.40;101728.53;4970479;28;20714;-78
2021/09/26 05:38:05;;;;;;;20.20;18.10;;;;;;;15.95;88.11;101729.44;4956480;28;20209;-80
2021/09/26 05:40:30;;;;;;;19.47;17.50;;;;;;;15.96;88.24;101731.19;4987494;28;20765;-78
2021/09/26 05:42:55;;;;;;;20.03;18.00;;;;;;;15.97;88.22;101732.06;4994274;28;20618;-78
2021/09/26 05:45:21;;;;;;;20.50;18.37;;;;;;;15.96;88.57;101726.00;4994729;28;20188;-78
2021/09/26 05:47:46;;;;;;;20.70;18.50;;;;;;;15.96;88.54;101731.19;4994447;28;20331;-79
2021/09/26 05:50:11;;;;;;;20.60;18.37;;;;;;;15.99;88.61;101722.59;4968017;28;20279;-80
2021/09/26 05:52:37;;;;;;;20.13;17.97;;;;;;;16.01;88.09;101729.50;4977373;28;20212;-78
2021/09/26 05:55:03;;;;;;;19.07;17.17;;;;;;;16.02;87.67;101726.06;4983894;28;20184;-79
2021/09/26 05:57:28;;;;;;;20.00;18.00;;;;;;;16.05;87.66;101728.69;4974607;28;20200;-78
2021/09/26 05:59:54;;;;;;;19.77;17.73;;;;;;;16.09;87.48;101730.47;4974128;28;20192;-78
2021/09/26 06:02:23;;;;;;;20.20;18.10;;;;;;;16.17;87.36;101733.13;4974095;28;20219;-80
2021/09/26 06:04:49;;;;;;;19.17;17.27;;;;;;;16.26;87.03;101730.66;4975420;28;20200;-79
2021/09/26 06:07:14;;;;;;;20.47;18.23;;;;;;;16.35;86.83;101723.00;4980110;28;20259;-79
2021/09/26 06:09:41;;;;;;;20.17;17.33;;;;;;;16.44;86.34;101728.28;4966018;28;20228;-79
2021/09/26 06:12:07;;;;;;;19.73;17.63;;;;;;;16.52;85.89;101729.22;4987148;28;20217;-79
2021/09/26 06:14:32;;;;;;;19.10;17.20;;;;;;;16.59;86.23;101736.19;4954871;29;20244;-79
2021/09/26 06:16:57;;;;;;;18.83;16.83;;;;;;;16.67;85.60;101739.72;4986080;28;20304;-80
2021/09/26 06:19:22;;;;;;;19.23;16.90;;;;;;;16.79;85.33;101727.75;4992042;28;20756;-78
2021/09/26 06:21:48;;;;;;;19.23;17.17;;;;;;;16.85;84.69;101727.78;4961897;28;20221;-79
2021/09/26 06:24:14;;;;;;;18.50;16.70;;;;;;;16.97;84.35;101725.31;4982797;28;20557;-79
2021/09/26 06:26:40;;;;;;;19.00;16.97;;;;;;;17.06;84.14;101721.91;4973405;28;20808;-79
2021/09/26 06:29:05;;;;;;;19.63;17.53;;;;;;;17.16;83.97;101722.00;5006151;28;20193;-80
2021/09/26 06:31:31;;;;;;;20.27;16.60;;;;;;;17.26;83.50;101723.78;4974695;28;20745;-80
2021/09/26 06:33:56;;;;;;;19.00;16.40;;;;;;;17.41;82.76;101726.50;4974549;28;20192;-79
2021/09/26 06:36:21;;;;;;;17.43;15.50;;;;;;;17.55;82.43;101717.06;4977427;28;20223;-81
2021/09/26 06:38:47;;;;;;;16.93;15.13;;;;;;;17.67;81.32;101719.72;4987036;28;20219;-78
2021/09/26 06:41:14;;;;;;;15.23;13.73;;;;;;;17.77;81.59;101715.47;4968495;28;20210;-79
2021/09/26 06:43:39;;;;;;;15.07;13.57;;;;;;;17.92;80.66;101724.16;4955817;28;20625;-80
2021/09/26 06:46:05;;;;;;;14.87;13.17;;;;;;;18.04;80.20;101725.91;4955287;29;20193;-78
2021/09/26 06:48:30;;;;;;;14.90;13.40;;;;;;;18.20;80.02;101719.94;4977514;28;20255;-78
2021/09/26 06:50:55;;;;;;;15.07;13.47;;;;;;;18.23;79.69;101714.75;4988381;28;20192;-80
2021/09/26 06:53:21;;;;;;;14.37;12.87;;;;;;;18.42;78.72;101720.00;4995766;28;20188;-79
2021/09/26 06:55:46;;;;;;;14.17;12.60;;;;;;;18.62;78.40;101725.22;4977876;28;20235;-79
2021/09/26 06:58:11;;;;;;;13.90;12.47;;;;;;;18.71;78.02;101715.72;4968403;28;20209;-78
2021/09/26 07:00:37;;;;;;;13.27;11.97;;;;;;;18.80;77.15;101717.44;4988478;28;20202;-79
2021/09/26 07:03:02;;;;;;;12.30;11.00;;;;;;;18.96;76.00;101720.03;4959878;28;20243;-80
2021/09/26 07:05:28;;;;;;;13.23;11.93;;;;;;;18.94;76.46;101720.91;4977777;28;20188;-79
2021/09/26 07:07:53;;;;;;;13.47;12.20;;;;;;;18.97;75.60;101718.31;5000933;28;20247;-81
2021/09/26 07:10:19;;;;;;;11.23;10.13;;;;;;;19.15;75.03;101713.94;4973840;28;20196;-79
2021/09/26 07:12:46;;;;;;;14.30;11.43;;;;;;;19.40;73.85;101715.66;4970331;28;20195;-78
2021/09/26 07:15:11;;;;;;;11.70;10.53;;;;;;;19.57;73.17;101713.88;4968332;28;20197;-78
2021/09/26 07:17:36;;;;;;;13.77;11.10;;;;;;;19.56;73.44;101714.75;4975741;28;20212;-78
2021/09/26 07:20:02;;;;;;;11.63;10.53;;;;;;;19.71;73.29;101717.28;4979622;28;20219;-78
2021/09/26 07:22:28;;;;;;;10.87;9.77;;;;;;;19.90;72.74;101720.69;4978023;28;20213;-78
2021/09/26 07:24:53;;;;;;;11.37;10.23;;;;;;;19.87;72.04;101715.50;4973507;28;20550;-79
2021/09/26 07:27:21;;;;;;;11.50;10.33;;;;;;;19.87;71.71;101715.50;4978412;28;20188;-79
2021/09/26 07:29:46;;;;;;;11.70;10.60;;;;;;;19.99;71.98;101705.88;4985072;28;20226;-80
2021/09/26 07:32:13;;;;;;;10.80;9.70;;;;;;;20.03;70.98;101715.41;4986540;28;20677;-79
2021/09/26 07:34:39;;;;;;;11.37;10.17;;;;;;;20.25;70.37;101710.97;4972593;28;20987;-79
2021/09/26 07:37:05;;;;;;;9.90;8.90;;;;;;;20.57;70.06;101701.22;4981767;28;20204;-79
2021/09/26 07:39:31;;;;;;;10.27;9.07;;;;;;;20.57;70.62;101707.28;5005894;28;20197;-80
2021/09/26 07:41:56;;;;;;;9.67;8.67;;;;;;;20.59;68.81;101710.75;4964793;28;20204;-79
2021/09/26 07:44:21;;;;;;;9.73;8.73;;;;;;;20.78;68.35;101711.47;4980214;28;20225;-79
2021/09/26 07:46:47;;;;;;;9.77;8.77;;;;;;;20.90;69.16;101711.38;4979731;28;20247;-79
2021/09/26 07:49:12;;;;;;;9.70;8.63;;;;;;;20.83;68.54;101705.31;4979265;28;20273;-79
2021/09/26 07:51:37;;;;;;;8.37;7.57;;;;;;;21.19;68.29;101707.63;5003853;28;20242;-80
2021/09/26 07:54:04;;;;;;;10.93;9.30;;;;;;;21.18;67.67;101697.22;4964410;28;20189;-80
2021/09/26 07:56:30;;;;;;;10.43;9.13;;;;;;;20.97;66.83;101694.84;4985165;28;20220;-80
2021/09/26 07:58:55;;;;;;;8.70;7.90;;;;;;;21.49;67.47;101686.47;4961547;28;20201;-80
2021/09/26 08:01:21;;;;;;;10.07;8.87;;;;;;;21.33;66.18;101690.09;4984469;28;20220;-78
2021/09/26 08:03:46;;;;;;;10.90;8.87;;;;;;;21.68;66.11;101697.50;4971595;28;20293;-79
2021/09/26 08:06:11;;;;;;;9.27;8.37;;;;;;;21.63;65.63;101696.72;4977814;28;20198;-79
2021/09/26 08:08:37;;;;;;;10.00;9.00;;;;;;;21.61;66.15;101695.88;4979345;28;20197;-78
2021/09/26 08:11:04;;;;;;;8.97;8.13;;;;;;;21.95;65.56;101697.19;4977476;28;20215;-79
2021/09/26 08:13:29;;;;;;;10.43;9.53;;;;;;;21.83;64.46;101693.00;4971237;28;20279;-79
2021/09/26 08:15:54;;;;;;;11.83;9.03;;;;;;;22.26;64.62;101695.91;4978966;28;20347;-80
2021/09/26 08:18:20;;;;;;;11.83;8.23;;;;;;;22.13;64.29;101689.13;4977622;28;20192;-79
2021/09/26 08:20:45;;;;;;;9.17;8.33;;;;;;;22.28;64.15;101694.09;4986515;28;20205;-79
2021/09/26 08:23:10;;;;;;;8.23;7.40;;;;;;;22.54;63.85;101694.63;4981404;28;20215;-79
2021/09/26 08:25:36;;;;;;;9.80;8.80;;;;;;;22.28;64.11;101686.28;4957475;28;20180;-79
2021/09/26 08:28:01;;;;;;;9.02;7.93;;;;;;;22.69;63.74;101688.31;4982971;28;20196;-80
2021/09/26 08:30:27;;;;;;;8.02;7.22;;;;;;;23.17;62.81;101680.47;4969112;28;20197;-78
2021/09/26 08:32:52;;;;;;;8.48;7.53;;;;;;;22.94;62.20;101694.81;4987202;28;20306;-79
2021/09/26 08:35:18;;;;;;;7.68;6.97;;;;;;;23.27;61.92;101689.88;4986306;28;20243;-80
2021/09/26 08:37:43;;;;;;;9.27;8.38;;;;;;;23.19;61.87;101686.53;4980222;28;20201;-79
2021/09/26 08:40:09;;;;;;;8.13;7.32;;;;;;;23.41;61.92;101690.47;4988888;28;20197;-80
2021/09/26 08:42:37;;;;;;;9.13;6.95;;;;;;;23.65;61.44;101686.50;4997811;28;20214;-79
2021/09/26 08:45:04;;;;;;;8.50;7.45;;;;;;;23.72;60.96;101694.22;4986106;28;20198;-79
2021/09/26 08:47:36;;;;;;;8.10;7.30;;;;;;;24.05;60.99;101692.63;4978019;28;20188;-80
2021/09/26 08:50:02;;;;;;;7.85;7.07;;;;;;;23.85;59.81;101693.03;4984500;28;20212;-80
2021/09/26 08:52:27;;;;;;;7.85;7.15;;;;;;;24.20;58.51;101698.41;4984812;28;20212;-80
2021/09/26 08:54:52;;;;;;;8.63;7.72;;;;;;;23.96;58.77;101698.94;4978095;28;20654;-80
2021/09/26 08:57:18;;;;;;;7.80;7.10;;;;;;;24.08;59.49;101695.19;4970993;28;20318;-79
2021/09/26 08:59:44;;;;;;;7.57;6.88;;;;;;;24.35;59.45;101695.41;4980413;28;20193;-79
2021/09/26 09:02:09;;;;;;;7.80;7.05;;;;;;;24.64;57.80;101693.00;4971605;28;20208;-79
2021/09/26 09:04:39;;;;;;;7.03;6.53;;;;;;;24.78;57.53;101683.06;4968343;28;20260;-80
2021/09/26 09:07:07;;;;;;;8.07;7.38;;;;;;;24.60;56.71;101685.25;4980347;28;20247;-79
2021/09/26 09:09:46;;;;;;;7.47;5.80;;;;;;;25.64;56.35;101678.94;4978956;28;20259;-79
2021/09/26 09:12:11;;;;;;;7.38;6.68;;;;;;;26.41;52.11;101673.94;4975654;28;20208;-79
2021/09/26 09:14:49;;;;;;;6.50;5.93;;;;;;;32.88;39.23;101657.13;4975159;28;20180;-79
2021/09/26 09:17:33;;;;;;;6.05;5.55;;;;;;;33.35;36.97;101661.28;4978160;28;20237;-79
2021/09/26 09:20:25;;;;;;;5.97;5.20;;;;;;;33.79;35.75;101648.69;4984411;28;20195;-79
2021/09/26 09:22:52;;;;;;;5.65;5.20;;;;;;;35.40;33.02;101651.94;4986803;28;20685;-79
2021/09/26 09:25:41;;;;;;;5.90;5.40;;;;;;;36.31;32.00;101651.47;4972350;28;20191;-80
2021/09/26 09:28:23;;;;;;;5.38;4.97;;;;;;;37.54;30.30;101648.97;4978011;28;20193;-80
2021/09/26 09:30:59;;;;;;;5.18;4.78;;;;;;;35.57;32.19;101656.06;4966190;28;20254;-80
2021/09/26 09:33:39;;;;;;;6.32;4.57;;;;;;;36.28;30.96;101660.56;4979413;28;20204;-79
2021/09/26 09:36:23;;;;;;;5.47;5.07;;;;;;;36.94;31.33;101652.81;4972364;28;20213;-80
2021/09/26 09:38:54;;;;;;;5.63;5.10;;;;;;;36.72;30.44;101650.09;5005148;28;20227;-80
2021/09/26 09:41:33;;;;;;;5.53;5.13;;;;;;;37.32;29.76;101643.66;4993375;28;20218;-80
2021/09/26 09:43:59;;;;;;;5.40;5.00;;;;;;;37.05;29.84;101641.28;4984822;28;20199;-80
2021/09/26 09:46:33;;;;;;;5.78;4.20;;;;;;;40.07;27.00;101623.38;4991873;28;20176;-79
2021/09/26 09:49:13;;;;;;;5.72;5.22;;;;;;;37.80;29.62;101629.03;4973143;28;20259;-81
2021/09/26 09:51:46;;;;;;;4.88;4.47;;;;;;;38.54;28.15;101631.72;4987618;28;20697;-81
2021/09/26 09:54:12;;;;;;;4.90;4.60;;;;;;;38.57;27.42;101632.31;4972049;28;20193;-82
2021/09/26 09:56:43;;;;;;;5.32;4.82;;;;;;;38.73;28.34;101634.53;4988923;28;20203;-81
2021/09/26 09:59:08;;;;;;;5.20;4.70;;;;;;;37.82;28.93;101633.28;4999010;28;20187;-81
2021/09/26 10:01:36;;;;;;;5.13;4.63;;;;;;;39.79;26.99;101632.25;4990990;28;20561;-79
2021/09/26 10:04:06;;;;;;;4.90;4.55;;;;;;;37.10;29.76;101641.75;4988905;28;20202;-81
2021/09/26 10:06:38;;;;;;;4.85;4.45;;;;;;;39.02;27.45;101624.84;4973378;28;20239;-80
2021/09/26 10:09:28;;;;;;;5.00;4.50;;;;;;;40.21;26.29;101620.31;5004770;28;20561;-80
2021/09/26 10:11:59;;;;;;;5.03;4.70;;;;;;;38.01;28.65;101624.59;5021355;28;20211;-80
2021/09/26 10:14:27;;;;;;;4.18;3.88;;;;;;;39.09;27.19;101620.66;4987903;28;20192;-80
2021/09/26 10:16:54;;;;;;;4.53;4.22;;;;;;;39.09;28.35;101621.53;4993206;28;20657;-81
2021/09/26 10:19:22;;;;;;;5.18;4.78;;;;;;;40.86;25.84;101615.00;4979773;28;20218;-80
2021/09/26 10:21:53;;;;;;;4.90;4.50;;;;;;;39.80;26.55;101612.47;4963654;28;20278;-81
2021/09/26 10:24:20;;;;;;;4.72;4.43;;;;;;;39.09;26.83;101617.97;4953529;29;20196;-81
2021/09/26 10:26:46;;;;;;;4.82;4.10;;;;;;;38.95;27.80;101621.00;4953718;29;20551;-81
2021/09/26 10:29:12;;;;;;;4.70;4.30;;;;;;;39.36;26.62;101613.75;4954737;29;20309;-80
2021/09/26 10:31:40;;;;;;;4.35;3.95;;;;;;;39.62;26.23;101611.41;4957670;28;20223;-81
2021/09/26 10:34:05;;;;;;;4.05;3.75;;;;;;;41.49;24.12;101607.03;4985778;28;20715;-80
2021/09/26 10:36:34;;;;;;;4.25;3.88;;;;;;;40.36;26.35;101611.69;4975356;28;20310;-82
2021/09/26 10:39:01;;;;;;;4.28;3.97;;;;;;;40.88;25.44;101613.03;4948545;29;20200;-80
2021/09/26 10:41:26;;;;;;;3.67;3.30;;;;;;;35.48;30.22;101620.25;4956190;29;20303;-80
2021/09/26 10:43:52;;;;;;;4.28;3.90;;;;;;;31.99;35.70;101632.31;4958055;28;20221;-80
2021/09/26 10:46:25;;;;;;;3.92;3.63;;;;;;;32.21;36.97;101627.47;4971589;28;20198;-79
2021/09/26 10:48:56;;;;;;;3.83;3.53;;;;;;;30.42;39.71;101621.28;4957481;28;20200;-79
2021/09/26 10:51:43;;;;;;;4.53;4.13;;;;;;;33.83;33.90;101607.69;4957192;29;20212;-81
2021/09/26 10:54:21;;;;;;;4.03;3.70;;;;;;;34.55;32.00;101607.31;4961637;28;20200;-80
2021/09/26 10:56:46;;;;;;;4.20;3.80;;;;;;;34.67;32.08;101601.16;4980600;28;20564;-80
2021/09/26 10:59:13;;;;;;;3.80;3.53;;;;;;;31.66;36.45;101619.09;4976575;28;20184;-79
2021/09/26 11:01:38;;;;;;;5.32;3.65;;;;;;;31.63;36.48;101611.31;5003037;28;20244;-80
2021/09/26 11:04:04;;;;;;;3.60;3.40;;;;;;;30.47;39.83;101619.25;4962729;28;20229;-81
2021/09/26 11:06:30;;;;;;;4.40;4.00;;;;;;;30.02;39.10;101616.22;4953407;29;20182;-78
2021/09/26 11:08:57;;;;;;;4.32;3.92;;;;;;;30.76;38.21;101599.31;4958422;28;20862;-79
2021/09/26 11:11:37;;;;;;;4.45;4.15;;;;;;;33.97;32.62;101590.84;4974899;28;20263;-79
2021/09/26 11:14:05;;;;;;;3.85;3.53;;;;;;;34.92;32.00;101580.75;4986878;28;20281;-79
2021/09/26 11:17:04;;;;;;;3.72;3.42;;;;;;;37.88;28.44;101581.91;4955032;29;20225;-80
2021/09/26 11:19:29;;;;;;;4.20;3.80;;;;;;;39.34;27.14;101579.97;4990202;28;20238;-80